Time,TemperatureF,DewpointF,PressureIn,WindDirection,WindDirectionDegrees,WindSpeedMPH,WindSpeedGustMPH,Humidity,HourlyPrecipIn,Conditions,Clouds,dailyrainin,SolarRadiationWatts/m^2,SoftwareType,DateUTC
2013-07-08 13:50:00,82.0,0.0,29.03,WSW,247,0.0,5.0,0,0.00,,---,0.00,0.00,VWS V14.01,2013-07-08 17:50:00,
2013-07-08 13:55:00,82.0,0.0,29.03,NW,315,0.0,5.0,0,0.00,,---,0.00,0.00,VWS V14.01,2013-07-08 17:55:00,
2013-07-08 14:00:00,82.0,0.0,29.03,SW,225,3.0,6.0,0,0.00,,---,0.00,0.00,VWS V14.01,2013-07-08 18:00:00,
2013-07-08 14:05:00,83.0,0.0,29.03,SE,135,0.0,6.0,0,0.00,,---,0.00,0.00,VWS V14.01,2013-07-08 18:05:00,
2013-07-08 14:12:00,83.0,0.0,29.01,SE,135,3.0,6.0,0,0.00,,---,0.00,0.00,VWS V14.01,2013-07-08 18:12:00,
2013-07-08 14:18:00,82.0,0.0,29.01,NNW,337,5.0,6.0,0,0.00,,---,0.00,0.00,VWS V14.01,2013-07-08 18:18:00,
2013-07-08 14:23:00,81.0,0.0,29.03,NNE,22,3.0,7.0,0,0.00,,---,0.00,0.00,VWS V14.01,2013-07-08 18:23:00,
2013-07-08 14:29:00,81.0,0.0,29.03,South,180,2.0,7.0,0,0.00,,---,0.00,0.00,VWS V14.01,2013-07-08 18:29:00,
2013-07-08 14:34:00,80.0,0.0,29.03,SSE,157,0.0,7.0,0,0.00,,---,0.00,0.00,VWS V14.01,2013-07-08 18:34:00,
2013-07-08 14:39:00,80.0,0.0,29.03,NW,315,0.0,7.0,0,0.00,,---,0.00,0.00,VWS V14.01,2013-07-08 18:39:00,
2013-07-08 14:44:00,80.0,0.0,29.04,SE,135,0.0,7.0,0,0.00,,---,0.00,0.00,VWS V14.01,2013-07-08 18:44:00,
2013-07-08 14:51:00,80.0,0.0,29.03,SSW,202,0.0,7.0,0,0.00,,---,0.00,0.00,VWS V14.01,2013-07-08 18:51:00,
2013-07-08 14:57:00,80.0,0.0,29.03,South,180,0.0,7.0,0,0.00,,---,0.00,0.00,VWS V14.01,2013-07-08 18:57:00,
2013-07-08 15:03:00,80.0,0.0,29.03,SW,225,0.0,7.0,0,0.00,,---,0.00,0.00,VWS V14.01,2013-07-08 19:03:00,
2013-07-08 15:09:00,81.0,0.0,29.03,SSW,202,2.0,7.0,0,0.00,,---,0.00,0.00,VWS V14.01,2013-07-08 19:09:00,
2013-07-08 15:16:00,81.0,0.0,29.03,South,180,0.0,7.0,0,0.00,,---,0.00,0.00,VWS V14.01,2013-07-08 19:16:00,
2013-07-08 15:21:00,81.0,0.0,29.02,South,180,0.0,7.0,0,0.00,,---,0.00,0.00,VWS V14.01,2013-07-08 19:21:00,
2013-07-08 15:26:00,81.0,0.0,29.02,South,180,0.0,7.0,0,0.00,,---,0.00,0.00,VWS V14.01,2013-07-08 19:26:00,
2013-07-08 15:32:00,82.0,0.0,29.01,South,180,4.0,7.0,0,0.00,,---,0.00,0.00,VWS V14.01,2013-07-08 19:32:00,
2013-07-08 15:37:00,83.0,0.0,29.01,SE,135,0.0,10.0,0,0.00,,---,0.00,0.00,VWS V14.01,2013-07-08 19:37:00,
2013-07-08 15:43:00,82.0,0.0,29.01,South,180,2.0,10.0,0,0.00,,---,0.00,0.00,VWS V14.01,2013-07-08 19:43:00,
2013-07-08 15:48:00,82.0,0.0,29.01,NNW,337,0.0,10.0,0,0.00,,---,0.00,0.00,VWS V14.01,2013-07-08 19:48:00,
2013-07-08 15:53:00,82.0,0.0,29.01,ENE,67,0.0,10.0,0,0.00,,---,0.00,0.00,VWS V14.01,2013-07-08 19:53:00,
2013-07-08 15:59:00,81.0,0.0,29.00,SSE,157,5.0,10.0,0,0.00,,---,0.00,0.00,VWS V14.01,2013-07-08 19:59:00,
2013-07-08 16:04:00,82.0,0.0,29.00,West,270,0.0,10.0,0,0.00,,---,0.00,0.00,VWS V14.01,2013-07-08 20:04:00,
2013-07-08 16:09:00,81.0,0.0,29.00,SW,225,0.0,6.0,0,0.00,,---,0.00,0.00,VWS V14.01,2013-07-08 20:09:00,
2013-07-08 16:15:00,81.0,0.0,29.00,East,90,0.0,0.0,0,0.00,,---,0.00,0.00,VWS V14.01,2013-07-08 20:15:00,
2013-07-08 16:21:00,84.0,0.0,29.00,SSW,202,0.0,3.0,0,0.03,,---,0.03,0.00,VWS V14.01,2013-07-08 20:21:00,
2013-07-08 16:26:00,84.0,0.0,29.00,NNW,337,0.0,8.0,0,0.03,,---,0.03,0.00,VWS V14.01,2013-07-08 20:26:00,
2013-07-08 16:31:00,83.0,0.0,28.99,SSE,157,3.0,5.0,0,0.03,,---,0.03,0.00,VWS V14.01,2013-07-08 20:31:00,
2013-07-08 16:36:00,83.0,0.0,28.99,ESE,112,0.0,4.0,0,0.03,,---,0.03,0.00,VWS V14.01,2013-07-08 20:36:00,
2013-07-08 16:41:00,84.0,0.0,28.99,SE,135,0.0,3.0,0,0.03,,---,0.03,0.00,VWS V14.01,2013-07-08 20:41:00,
2013-07-08 16:47:00,84.0,0.0,28.99,South,180,6.0,6.0,0,0.03,,---,0.03,0.00,VWS V14.01,2013-07-08 20:47:00,
2013-07-08 16:53:00,84.0,0.0,28.98,South,180,3.0,6.0,0,0.03,,---,0.03,0.00,VWS V14.01,2013-07-08 20:53:00,
2013-07-08 16:58:00,84.0,0.0,28.98,South,180,0.0,4.0,0,0.03,,---,0.03,0.00,VWS V14.01,2013-07-08 20:58:00,
2013-07-08 17:03:00,84.0,0.0,28.97,SE,135,0.0,5.0,0,0.03,,---,0.03,0.00,VWS V14.01,2013-07-08 21:03:00,
2013-07-08 17:08:00,84.0,0.0,28.97,SSE,157,3.0,5.0,0,0.03,,---,0.03,0.00,VWS V14.01,2013-07-08 21:08:00,
2013-07-08 17:13:00,84.0,0.0,28.97,South,180,7.0,8.0,0,0.03,,---,0.03,0.00,VWS V14.01,2013-07-08 21:13:00,
2013-07-08 17:18:00,84.0,0.0,28.97,SSW,202,4.0,6.0,0,0.03,,---,0.03,0.00,VWS V14.01,2013-07-08 21:18:00,
2013-07-08 17:23:00,84.0,0.0,28.97,South,180,3.0,3.0,0,0.00,,---,0.03,0.00,VWS V14.01,2013-07-08 21:23:00,
2013-07-08 17:28:00,84.0,0.0,28.97,South,180,3.0,3.0,0,0.00,,---,0.03,0.00,VWS V14.01,2013-07-08 21:28:00,
2013-07-08 17:33:00,84.0,0.0,28.97,WNW,292,0.0,7.0,0,0.00,,---,0.03,0.00,VWS V14.01,2013-07-08 21:33:00,
2013-07-08 17:39:00,84.0,0.0,28.97,SE,135,2.0,2.0,0,0.00,,---,0.03,0.00,VWS V14.01,2013-07-08 21:39:00,
2013-07-08 17:45:00,83.0,0.0,28.97,South,180,0.0,0.0,0,0.00,,---,0.03,0.00,VWS V14.01,2013-07-08 21:45:00,
2013-07-08 17:51:00,83.0,0.0,28.98,SSE,157,3.0,4.0,0,0.00,,---,0.03,0.00,VWS V14.01,2013-07-08 21:51:00,
2013-07-08 17:56:00,83.0,0.0,28.98,SSE,157,1.0,6.0,0,0.00,,---,0.03,0.00,VWS V14.01,2013-07-08 21:56:00,
2013-07-08 18:01:00,83.0,0.0,28.96,WNW,292,0.0,4.0,0,0.00,,---,0.03,0.00,VWS V14.01,2013-07-08 22:01:00,
2013-07-08 18:07:00,84.0,0.0,28.96,South,180,0.0,3.0,0,0.00,,---,0.03,0.00,VWS V14.01,2013-07-08 22:07:00,
2013-07-08 18:12:00,85.0,0.0,28.96,SSE,157,0.0,4.0,0,0.00,,---,0.03,0.00,VWS V14.01,2013-07-08 22:12:00,
2013-07-08 18:17:00,85.0,0.0,28.96,WSW,247,0.0,2.0,0,0.00,,---,0.03,0.00,VWS V14.01,2013-07-08 22:17:00,
2013-07-08 18:22:00,84.0,0.0,28.96,SSE,157,5.0,5.0,0,0.00,,---,0.03,0.00,VWS V14.01,2013-07-08 22:22:00,
2013-07-08 18:27:00,84.0,0.0,28.96,SE,135,4.0,4.0,0,0.00,,---,0.03,0.00,VWS V14.01,2013-07-08 22:27:00,
2013-07-08 18:33:00,89.0,70.2,29.06,NNE,22,0.0,5.0,54,1.53,,---,1.56,0.00,VWS V14.01,2013-07-08 22:33:00,
2013-07-08 18:38:00,87.0,69.9,29.06,SSW,202,5.0,5.0,57,1.53,,---,1.56,0.00,VWS V14.01,2013-07-08 22:38:00,
2013-07-08 18:43:00,86.0,71.0,29.08,SSE,157,0.0,3.0,61,1.53,,---,1.56,0.00,VWS V14.01,2013-07-08 22:43:00,
2013-07-08 18:48:00,86.0,71.9,29.09,South,180,3.0,6.0,63,1.53,,---,1.56,0.00,VWS V14.01,2013-07-08 22:48:00,
2013-07-08 18:54:00,85.0,71.0,29.09,NNE,22,0.0,4.0,63,1.53,,---,1.56,0.00,VWS V14.01,2013-07-08 22:54:00,
2013-07-08 18:59:00,84.0,70.5,29.09,East,90,0.0,1.0,64,1.53,,---,1.56,0.00,VWS V14.01,2013-07-08 22:59:00,
2013-07-08 19:04:00,83.0,69.6,29.09,SE,135,0.0,0.0,64,1.53,,---,1.56,0.00,VWS V14.01,2013-07-08 23:04:00,
2013-07-08 19:10:00,83.0,70.9,29.10,SE,135,0.0,4.0,67,1.53,,---,1.56,0.00,VWS V14.01,2013-07-08 23:10:00,
2013-07-08 19:15:00,82.0,70.0,29.10,ENE,67,0.0,6.0,67,1.53,,---,1.56,0.00,VWS V14.01,2013-07-08 23:15:00,
2013-07-08 19:20:00,82.0,70.0,29.11,ESE,112,0.0,5.0,67,1.53,,---,1.56,0.00,VWS V14.01,2013-07-08 23:20:00,
2013-07-08 19:25:00,82.0,70.4,29.11,NW,315,3.0,5.0,68,1.53,,---,1.56,0.00,VWS V14.01,2013-07-08 23:25:00,
2013-07-08 19:30:00,82.0,70.4,29.11,SSE,157,3.0,3.0,68,1.48,,---,1.56,0.00,VWS V14.01,2013-07-08 23:30:00,
2013-07-08 19:35:00,82.0,70.8,29.11,South,180,4.0,4.0,69,0.00,,---,1.56,0.00,VWS V14.01,2013-07-08 23:35:00,
2013-07-08 19:41:00,82.0,70.4,29.11,SSE,157,0.0,0.0,68,0.00,,---,1.56,0.00,VWS V14.01,2013-07-08 23:41:00,
2013-07-08 19:46:00,82.0,70.8,29.11,SE,135,0.0,3.0,69,0.00,,---,1.56,0.00,VWS V14.01,2013-07-08 23:46:00,
2013-07-08 19:51:00,82.0,71.3,29.12,SE,135,0.0,4.0,70,0.00,,---,1.56,0.00,VWS V14.01,2013-07-08 23:51:00,
2013-07-08 19:56:00,82.0,70.8,29.12,West,270,0.0,0.0,69,0.00,,---,1.56,0.00,VWS V14.01,2013-07-08 23:56:00,
2013-07-08 20:02:00,81.0,70.7,29.12,West,270,0.0,3.0,71,0.00,,---,1.56,0.00,VWS V14.01,2013-07-09 00:02:00,
2013-07-08 20:07:00,81.0,70.7,29.12,SE,135,0.0,0.0,71,0.00,,---,1.56,0.00,VWS V14.01,2013-07-09 00:07:00,
2013-07-08 20:12:00,81.0,71.1,29.13,SSE,157,0.0,0.0,72,0.00,,---,1.56,0.00,VWS V14.01,2013-07-09 00:12:00,
2013-07-08 20:17:00,81.0,71.1,29.13,SSE,157,0.0,0.0,72,0.00,,---,1.56,0.00,VWS V14.01,2013-07-09 00:17:00,
2013-07-08 20:22:00,80.0,70.6,29.13,ESE,112,0.0,0.0,73,0.00,,---,1.56,0.00,VWS V14.01,2013-07-09 00:22:00,
2013-07-08 20:28:00,80.0,71.0,29.13,North,360,0.0,0.0,74,0.00,,---,1.56,0.00,VWS V14.01,2013-07-09 00:28:00,
2013-07-08 20:33:00,80.0,71.0,29.13,North,360,0.0,0.0,74,0.00,,---,1.56,0.00,VWS V14.01,2013-07-09 00:33:00,
2013-07-08 20:38:00,79.0,70.8,29.13,South,180,0.0,0.0,76,0.00,,---,1.56,0.00,VWS V14.01,2013-07-09 00:38:00,
2013-07-08 20:43:00,79.0,70.8,29.14,NE,45,0.0,0.0,76,0.00,,---,1.56,0.00,VWS V14.01,2013-07-09 00:43:00,
2013-07-08 20:48:00,79.0,71.6,29.14,SE,135,0.0,4.0,78,0.00,,---,1.56,0.00,VWS V14.01,2013-07-09 00:48:00,
2013-07-08 20:54:00,79.0,71.9,29.14,SE,135,0.0,0.0,79,0.00,,---,1.56,0.00,VWS V14.01,2013-07-09 00:54:00,
2013-07-08 20:59:00,79.0,71.9,29.14,SE,135,0.0,0.0,79,0.00,,---,1.56,0.00,VWS V14.01,2013-07-09 00:59:00,
2013-07-08 21:05:00,78.0,71.3,29.14,South,180,0.0,0.0,80,0.00,,---,1.56,0.00,VWS V14.01,2013-07-09 01:05:00,
2013-07-08 21:10:00,78.0,71.7,29.14,SE,135,0.0,0.0,81,0.00,,---,1.56,0.00,VWS V14.01,2013-07-09 01:10:00,
2013-07-08 21:15:00,78.0,71.7,29.14,SE,135,0.0,0.0,81,0.00,,---,1.56,0.00,VWS V14.01,2013-07-09 01:15:00,
2013-07-08 21:20:00,78.0,71.7,29.14,SE,135,0.0,0.0,81,0.00,,---,1.56,0.00,VWS V14.01,2013-07-09 01:20:00,
2013-07-08 21:25:00,78.0,71.7,29.14,East,90,0.0,0.0,81,0.00,,---,1.56,0.00,VWS V14.01,2013-07-09 01:25:00,
2013-07-08 21:30:00,78.0,72.4,29.15,SSE,157,0.0,0.0,83,0.00,,---,1.56,0.00,VWS V14.01,2013-07-09 01:30:00,
2013-07-08 21:36:00,78.0,72.1,29.15,SE,135,0.0,0.0,82,0.00,,---,1.56,0.00,VWS V14.01,2013-07-09 01:36:00,
2013-07-08 21:41:00,78.0,72.1,29.16,East,90,0.0,0.0,82,0.00,,---,1.56,0.00,VWS V14.01,2013-07-09 01:41:00,
2013-07-08 21:46:00,78.0,72.4,29.16,SE,135,1.0,1.0,83,0.00,,---,1.56,0.00,VWS V14.01,2013-07-09 01:46:00,
2013-07-08 21:51:00,78.0,72.4,29.15,SW,225,0.0,1.0,83,0.00,,---,1.56,0.00,VWS V14.01,2013-07-09 01:51:00,
2013-07-08 21:56:00,78.0,72.4,29.15,SE,135,0.0,0.0,83,0.00,,---,1.56,0.00,VWS V14.01,2013-07-09 01:56:00,
2013-07-08 22:01:00,78.0,72.4,29.15,South,180,1.0,1.0,83,0.00,,---,1.56,0.00,VWS V14.01,2013-07-09 02:01:00,
2013-07-08 22:06:00,78.0,72.4,29.15,ESE,112,0.0,0.0,83,0.00,,---,1.56,0.00,VWS V14.01,2013-07-09 02:06:00,
2013-07-08 22:11:00,78.0,72.4,29.16,SSE,157,1.0,2.0,83,0.00,,---,1.56,0.00,VWS V14.01,2013-07-09 02:11:00,
2013-07-08 22:17:00,78.0,72.4,29.16,SE,135,0.0,3.0,83,0.00,,---,1.56,0.00,VWS V14.01,2013-07-09 02:17:00,
2013-07-08 22:22:00,78.0,72.1,29.16,SE,135,3.0,3.0,82,0.00,,---,1.56,0.00,VWS V14.01,2013-07-09 02:22:00,
2013-07-08 22:28:00,78.0,71.7,29.16,SSE,157,0.0,3.0,81,0.00,,---,1.56,0.00,VWS V14.01,2013-07-09 02:28:00,
2013-07-08 22:33:00,78.0,71.7,29.16,SE,135,2.0,4.0,81,0.00,,---,1.56,0.00,VWS V14.01,2013-07-09 02:33:00,
2013-07-08 22:38:00,78.0,71.7,29.16,South,180,3.0,4.0,81,0.00,,---,1.56,0.00,VWS V14.01,2013-07-09 02:38:00,
2013-07-08 22:43:00,78.0,71.7,29.16,WSW,247,0.0,4.0,81,0.00,,---,1.56,0.00,VWS V14.01,2013-07-09 02:43:00,
2013-07-08 22:48:00,78.0,71.7,29.16,SSE,157,0.0,0.0,81,0.00,,---,1.56,0.00,VWS V14.01,2013-07-09 02:48:00,
2013-07-08 22:53:00,78.0,71.7,29.16,SW,225,1.0,5.0,81,0.00,,---,1.56,0.00,VWS V14.01,2013-07-09 02:53:00,
2013-07-08 22:58:00,78.0,71.3,29.15,SSW,202,0.0,0.0,80,0.00,,---,1.56,0.00,VWS V14.01,2013-07-09 02:58:00,
2013-07-08 23:04:00,78.0,71.7,29.15,South,180,4.0,4.0,81,0.00,,---,1.56,0.00,VWS V14.01,2013-07-09 03:04:00,
2013-07-08 23:10:00,78.0,71.7,29.15,SE,135,0.0,2.0,81,0.00,,---,1.56,0.00,VWS V14.01,2013-07-09 03:10:00,
2013-07-08 23:16:00,78.0,71.7,29.15,South,180,2.0,7.0,81,0.00,,---,1.56,0.00,VWS V14.01,2013-07-09 03:16:00,
2013-07-08 23:21:00,78.0,71.7,29.16,South,180,0.0,3.0,81,0.00,,---,1.56,0.00,VWS V14.01,2013-07-09 03:21:00,
2013-07-08 23:26:00,78.0,71.7,29.16,South,180,3.0,4.0,81,0.00,,---,1.56,0.00,VWS V14.01,2013-07-09 03:26:00,
2013-07-08 23:31:00,78.0,71.7,29.16,SE,135,1.0,5.0,81,0.00,,---,1.56,0.00,VWS V14.01,2013-07-09 03:31:00,
2013-07-08 23:37:00,78.0,71.7,29.16,ESE,112,1.0,3.0,81,0.00,,---,1.56,0.00,VWS V14.01,2013-07-09 03:37:00,
2013-07-08 23:42:00,78.0,71.7,29.16,South,180,0.0,5.0,81,0.00,,---,1.56,0.00,VWS V14.01,2013-07-09 03:42:00,
2013-07-08 23:47:00,78.0,71.7,29.16,North,360,0.0,5.0,81,0.00,,---,1.56,0.00,VWS V14.01,2013-07-09 03:47:00,
2013-07-08 23:52:00,78.0,71.7,29.16,ESE,112,0.0,4.0,81,0.00,,---,1.56,0.00,VWS V14.01,2013-07-09 03:52:00,
2013-07-08 23:57:00,78.0,71.7,29.16,South,180,1.0,4.0,81,0.00,,---,1.56,0.00,VWS V14.01,2013-07-09 03:57:00,